Historyczne dane pomiarowe

Dodano dane terminowe – wersja testowa.

Dane z okresu 1951-2019

Wersja bazy: 1.34 [2019-03-16, lista zmian], aktualizacja planowana na 2019-04-15

Dane meteo z obszaru Polski uzyskane na podstawie danych udostępnionych przez Instytut Meteorologii i Gospodarki Wodnej – Państwowy Instytut Badawczy.

 

Wybierz Datę:    

       

TemperaturaWilgotnośćWiatrCiśnienieOpadyŚniegCzas trwania zjawisk
 Stacja t tx tn tng RH VA  wxwx mslp ppp RRR   cm mm wxwxwxwxwxwxwx
1995-09-11 15.4 22.0 9.8 6.4-- 0.0 1.0---- 0.0------------
1995-09-12 17.0 21.5 15.1 11.0-- 2.7 1.0---- 0.0------------
1995-09-13 16.9 23.8 10.0 6.4-- 0.0 3.0---- 0.0------------
1995-09-14 17.7 20.5 16.5 14.0-- 6.0 1.3---- 1.1------------
1995-09-15 14.1 17.0 12.9 12.6-- 8.0 1.0---- 7.0------------
1995-09-16 14.6 18.4 12.4 11.0-- 8.0 0.3---- 0.0------------
1995-09-17 13.6 19.4 9.5 7.0-- 0.0 1.0---- 0.0------------
1995-09-18 12.3 14.1 11.6 11.0-- 8.0 1.3---- 0.0------------
1995-09-19 11.4 12.7 11.0 10.5-- 8.0 1.7---- 0.0------------
1995-09-20 10.6 12.1 9.0 8.8-- 8.0 1.7---- 8.0------------
1995-09-21 12.3 16.2 11.0 10.3-- 8.0 3.3---- 0.0------------
1995-09-22 10.5 16.6 6.5 2.5-- 4.0 0.3---- 0.0------------
1995-09-23 12.9 16.7 10.7 5.8-- 2.7 1.0---- 0.0------------
1995-09-24 13.0 18.0 8.7 4.0-- 5.3 0.7---- 0.0------------
1995-09-25 13.6 20.5 10.1 7.0-- 2.7 0.7---- 0.0------------
1995-09-26 13.8 17.0 11.3 6.2-- 4.0 3.0---- 8.0------------
1995-09-27 12.3 15.6 11.5 11.5-- 8.0 1.7---- 12.7------------
1995-09-28 9.4 12.5 7.9 5.5-- 4.0 4.3---- 0.0------------
1995-09-29 6.7 11.5 4.0 2.0-- 2.0 3.3---- 2.9------------
1995-09-30 6.1 10.1 4.4 1.5-- 0.7 2.7---- 0.5------------
1995-10-01 6.5 10.7 3.8 1.5-- 5.3 2.3---- 0.9------------
1995-10-02 10.7 16.5 6.7 3.0-- 0.0 1.7---- 0.0------------
1995-10-03 12.2 20.0 6.7 0.7-- 0.0 1.3---- 0.0------------
1995-10-04 16.0 21.5 12.5 9.5-- 2.7 0.7---- 0.0------------
1995-10-05 16.6 22.8 11.7 8.9-- 0.0 0.0---- 0.0------------
1995-10-06 14.8 19.3 12.3 7.0-- 2.7 0.3---- 0.0------------
1995-10-07 14.9 21.1 10.3 6.0-- 5.3 0.3---- 0.0------------
1995-10-08 15.4 17.5 13.5 8.2-- 5.3 0.0---- 1.4------------
1995-10-09 15.7 23.5 11.1 7.2-- 0.0 0.3---- 0.0------------
1995-10-10 16.8 25.0 12.7 7.5-- 0.0 0.3---- 0.0------------
213.1 ms

 

Źródłem pochodzenia danych jest Instytut Meteorologii i Gospodarki Wodnej – Państwowy Instytut Badawczy. Dane Instytutu Meteorologii i Gospodarki Wodnej – Państwowego Instytutu Badawczego zostały przetworzone.

Dane źródłowe można odnaleźć na stronie https://dane.imgw.pl